Time;durP1;ratioP1;P1;durP2;ratioP2;P2;SDS_P1;SDS_P2;PMS_P1;PMS_P2;Temp;Humidity;BMP_temperature;BMP_pressure;BME280_temperature;BME280_humidity;BME280_pressure;Samples;Min_cycle;Max_cycle;Signal;HPM_P1;HPM_P2
2022/10/22 00:00:54;;;;;;;8.98;2.90;;;;;;;14.13;100.00;100796.56;4721184;30;20041;-52
2022/10/22 00:03:22;;;;;;;10.23;3.30;;;;;;;14.10;100.00;100802.66;4737772;30;20045;-57
2022/10/22 00:05:49;;;;;;;6.22;3.10;;;;;;;14.13;100.00;100807.53;4722202;30;20057;-53
2022/10/22 00:08:17;;;;;;;8.05;2.90;;;;;;;14.14;100.00;100810.00;4721874;30;20116;-56
2022/10/22 00:10:44;;;;;;;6.90;3.10;;;;;;;14.14;100.00;100801.78;4737184;30;20045;-53
2022/10/22 00:13:12;;;;;;;4.60;2.85;;;;;;;14.12;100.00;100801.25;4738036;30;20069;-55
2022/10/22 00:15:40;;;;;;;7.10;2.88;;;;;;;14.13;100.00;100799.31;4752921;30;20420;-52
2022/10/22 00:18:08;;;;;;;7.07;3.08;;;;;;;14.14;100.00;100800.94;4752887;30;20056;-53
2022/10/22 00:20:35;;;;;;;6.97;3.30;;;;;;;14.17;100.00;100803.13;4752395;30;20113;-54
2022/10/22 00:23:03;;;;;;;6.65;3.20;;;;;;;14.18;100.00;100810.22;4752534;30;20146;-51
2022/10/22 00:25:34;;;;;;;6.93;3.47;;;;;;;14.20;100.00;100808.81;4754084;30;20504;-54
2022/10/22 00:28:02;;;;;;;9.05;3.30;;;;;;;14.18;100.00;100804.72;4753187;30;20106;-53
2022/10/22 00:30:30;;;;;;;8.13;3.35;;;;;;;14.15;100.00;100803.41;4749549;30;20691;-52
2022/10/22 00:32:57;;;;;;;7.63;3.30;;;;;;;14.14;100.00;100809.16;4747882;30;20064;-54
2022/10/22 00:35:25;;;;;;;7.55;3.53;;;;;;;14.15;100.00;100810.81;4749467;30;20098;-55
2022/10/22 00:37:52;;;;;;;8.45;3.70;;;;;;;14.14;100.00;100796.28;4747914;30;20604;-55
2022/10/22 00:40:20;;;;;;;8.73;3.40;;;;;;;14.12;100.00;100803.16;4752704;30;20048;-53
2022/10/22 00:42:48;;;;;;;9.75;3.50;;;;;;;14.10;100.00;100797.16;4751468;30;20078;-55
2022/10/22 00:45:22;;;;;;;7.60;3.20;;;;;;;14.06;100.00;100797.72;4754166;30;20121;-55
2022/10/22 00:48:20;;;;;;;7.90;3.58;;;;;;;14.07;100.00;100807.59;4752555;30;20056;-52
2022/10/22 00:50:50;;;;;;;11.00;3.45;;;;;;;14.04;100.00;100816.38;4750023;30;20586;-52
2022/10/22 00:53:27;;;;;;;8.02;3.50;;;;;;;14.04;100.00;100813.66;4753528;30;20119;-53
2022/10/22 00:55:55;;;;;;;9.10;3.70;;;;;;;14.04;100.00;100812.84;4753194;30;20118;-54
2022/10/22 00:58:26;;;;;;;10.77;3.50;;;;;;;14.06;100.00;100805.16;4753037;30;20061;-52
2022/10/22 01:00:54;;;;;;;9.48;3.50;;;;;;;14.05;100.00;100809.81;4752018;30;20573;-53
2022/10/22 01:03:22;;;;;;;11.23;3.50;;;;;;;14.04;100.00;100804.63;4721437;30;20457;-55
2022/10/22 01:05:56;;;;;;;6.85;3.53;;;;;;;14.04;100.00;100807.34;4758572;30;20056;-57
2022/10/22 01:08:42;;;;;;;4.97;3.30;;;;;;;14.05;100.00;100804.34;4766876;30;20058;-52
2022/10/22 01:11:15;;;;;;;;;;;;;;;14.05;100.00;100807.06;4752014;30;20063;-54
2022/10/22 01:14:02;;;;;;;9.18;3.22;;;;;;;14.05;100.00;100807.06;4736430;30;126420;-53
2022/10/22 01:16:33;;;;;;;;;;;;;;;14.05;100.00;100811.75;4754309;30;20459;-54
2022/10/22 01:19:19;;;;;;;7.60;3.88;;;;;;;14.04;100.00;100810.91;4752633;30;19926;-50
2022/10/22 01:21:52;;;;;;;7.80;3.60;;;;;;;14.04;100.00;100813.66;4749662;30;20493;-52
2022/10/22 01:24:25;;;;;;;9.75;3.60;;;;;;;14.03;100.00;100803.81;4752671;30;20052;-51
2022/10/22 01:27:14;;;;;;;9.98;3.63;;;;;;;14.00;100.00;100793.44;4753410;30;20048;-55
2022/10/22 01:29:49;;;;;;;8.18;3.38;;;;;;;13.96;100.00;100803.34;4752477;30;20055;-56
2022/10/22 01:32:22;;;;;;;9.48;3.63;;;;;;;13.93;100.00;100797.63;4752770;30;20109;-56
2022/10/22 01:35:07;;;;;;;10.30;3.67;;;;;;;13.90;100.00;100799.00;4752811;30;20051;-54
2022/10/22 01:37:51;;;;;;;7.87;3.67;;;;;;;13.90;100.00;100801.75;4761318;30;20385;-55
2022/10/22 01:40:19;;;;;;;10.70;3.97;;;;;;;13.90;100.00;100801.75;4752092;30;20348;-58
2022/10/22 01:42:58;;;;;;;7.63;3.50;;;;;;;13.91;100.00;100800.66;4737641;30;20388;-56
2022/10/22 01:45:34;;;;;;;8.90;4.15;;;;;;;13.93;100.00;100800.38;4751383;30;20048;-55
2022/10/22 01:48:21;;;;;;;12.43;4.07;;;;;;;13.93;100.00;100798.44;4751981;30;20063;-55
2022/10/22 01:51:21;;;;;;;12.88;4.20;;;;;;;13.92;100.00;100798.72;4751707;30;20068;-54
2022/10/22 01:54:00;;;;;;;10.55;3.83;;;;;;;13.91;100.00;100791.63;4737130;30;20488;-53
2022/10/22 01:57:13;;;;;;;13.73;4.10;;;;;;;13.91;100.00;100786.97;4753450;30;20051;-54
2022/10/22 01:59:49;;;;;;;9.13;4.00;;;;;;;13.91;100.00;100786.16;4743233;30;20505;-52
2022/10/22 02:02:23;;;;;;;8.03;3.70;;;;;;;13.91;100.00;100794.38;4736622;30;20516;-52
2022/10/22 02:05:12;;;;;;;11.68;4.13;;;;;;;13.92;100.00;100796.81;4750780;30;20421;-52
2022/10/22 02:07:44;;;;;;;8.25;4.07;;;;;;;13.94;100.00;100797.31;4751701;30;20048;-51
2022/10/22 02:10:12;;;;;;;13.88;4.75;;;;;;;13.96;100.00;100797.88;4751589;30;20052;-54
2022/10/22 02:12:41;;;;;;;12.48;4.20;;;;;;;13.96;100.00;100797.88;4751618;30;20067;-51
2022/10/22 02:15:10;;;;;;;11.43;4.18;;;;;;;13.93;100.00;100798.44;4765044;30;20055;-52
2022/10/22 02:17:38;;;;;;;8.70;3.50;;;;;;;13.92;100.00;100794.06;4766313;30;20113;-55
2022/10/22 02:20:22;;;;;;;14.20;4.57;;;;;;;13.90;100.00;100792.72;4766291;30;20503;-52
2022/10/22 02:22:50;;;;;;;10.75;3.97;;;;;;;13.89;100.00;100793.84;4751832;30;20070;-55
2022/10/22 02:25:17;;;;;;;8.70;3.67;;;;;;;13.88;100.00;100795.78;4750938;30;20052;-53
2022/10/22 02:27:51;;;;;;;7.60;3.78;;;;;;;13.88;100.00;100800.41;4766406;30;20040;-53
2022/10/22 02:30:20;;;;;;;16.65;4.18;;;;;;;13.86;100.00;100789.75;4766445;30;20056;-54
2022/10/22 02:33:06;;;;;;;11.93;4.38;;;;;;;13.83;100.00;100793.09;4740291;30;20459;-54
2022/10/22 02:35:35;;;;;;;12.65;3.80;;;;;;;13.81;100.00;100787.91;4751416;30;20101;-52
2022/10/22 02:38:03;;;;;;;8.50;3.60;;;;;;;13.82;100.00;100796.91;4765937;30;20052;-52
2022/10/22 02:40:30;;;;;;;9.05;3.97;;;;;;;13.83;100.00;100788.41;4766283;30;20052;-52
2022/10/22 02:42:58;;;;;;;13.07;4.13;;;;;;;13.83;100.00;100788.41;4765825;30;20458;-51
2022/10/22 02:45:26;;;;;;;8.93;3.67;;;;;;;13.83;100.00;100788.41;4764798;30;20405;-52
2022/10/22 02:47:54;;;;;;;10.43;3.85;;;;;;;13.83;100.00;100782.13;4752613;30;20036;-53
2022/10/22 02:50:21;;;;;;;9.35;3.97;;;;;;;13.79;100.00;100792.03;4752343;30;20055;-52
2022/10/22 02:52:49;;;;;;;10.23;4.00;;;;;;;13.78;100.00;100795.84;4751258;30;20103;-53
2022/10/22 02:55:17;;;;;;;8.77;3.72;;;;;;;13.76;100.00;100787.94;4752055;30;20059;-53
2022/10/22 02:57:44;;;;;;;9.65;3.83;;;;;;;13.77;100.00;100786.03;4751966;30;20048;-55
2022/10/22 03:00:13;;;;;;;15.95;3.90;;;;;;;13.77;100.00;100799.72;4765998;30;20052;-53
2022/10/22 03:02:40;;;;;;;8.43;3.90;;;;;;;13.75;100.00;100793.72;4751206;30;20059;-52
2022/10/22 03:05:08;;;;;;;11.30;3.90;;;;;;;13.75;100.00;100801.94;4751266;30;20052;-54
2022/10/22 03:07:36;;;;;;;12.52;4.32;;;;;;;13.75;100.00;100796.44;4752202;30;20573;-51
2022/10/22 03:10:04;;;;;;;9.48;4.55;;;;;;;13.73;100.00;100798.66;4752276;30;20124;-55
2022/10/22 03:12:32;;;;;;;10.13;4.18;;;;;;;13.71;100.00;100807.19;4743781;30;20114;-53
2022/10/22 03:15:00;;;;;;;17.20;4.53;;;;;;;13.70;100.00;100804.72;4752178;30;20528;-50
2022/10/22 03:17:28;;;;;;;13.82;4.10;;;;;;;13.66;100.00;100798.19;4752346;30;20060;-54
2022/10/22 03:19:55;;;;;;;7.50;3.50;;;;;;;13.64;100.00;100802.03;4752231;30;20102;-53
2022/10/22 03:22:25;;;;;;;12.35;3.97;;;;;;;13.62;100.00;100804.25;4750866;30;20072;-52
2022/10/22 03:24:57;;;;;;;8.68;3.85;;;;;;;13.61;100.00;100801.78;4751846;30;20504;-55
2022/10/22 03:27:27;;;;;;;13.40;4.40;;;;;;;13.59;100.00;100809.50;4751119;30;20071;-54
2022/10/22 03:29:55;;;;;;;10.68;3.83;;;;;;;13.58;100.00;100808.66;4752174;30;20059;-52
2022/10/22 03:32:22;;;;;;;9.05;3.95;;;;;;;13.58;100.00;100816.88;4750647;30;20049;-52
2022/10/22 03:34:50;;;;;;;11.15;4.22;;;;;;;13.56;100.00;100819.06;4752936;30;20048;-55
2022/10/22 03:37:18;;;;;;;11.60;4.07;;;;;;;13.56;100.00;100816.34;4753820;30;20056;-54
2022/10/22 03:39:46;;;;;;;9.70;4.05;;;;;;;13.54;100.00;100823.19;4762770;30;20110;-53
2022/10/22 03:42:15;;;;;;;11.68;4.13;;;;;;;13.54;100.00;100824.03;4753086;30;20048;-52
2022/10/22 03:44:42;;;;;;;9.77;3.70;;;;;;;13.56;100.00;100823.72;4757283;30;20056;-53
2022/10/22 03:47:10;;;;;;;11.13;4.05;;;;;;;13.56;100.00;100821.81;4771831;30;20131;-55
2022/10/22 03:49:38;;;;;;;14.43;4.10;;;;;;;13.53;100.00;100832.53;4770767;30;20049;-53
2022/10/22 03:52:12;;;;;;;13.93;4.20;;;;;;;13.50;100.00;100827.63;4761005;30;20044;-51
2022/10/22 03:54:40;;;;;;;10.98;3.80;;;;;;;13.49;100.00;100829.53;4761370;30;20052;-51
2022/10/22 03:57:09;;;;;;;10.70;4.10;;;;;;;13.47;100.00;100829.03;4768821;30;20127;-57
2022/10/22 03:59:46;;;;;;;8.93;3.75;;;;;;;13.45;100.00;100841.38;4752745;30;20041;-54
2022/10/22 04:02:13;;;;;;;10.73;4.03;;;;;;;13.45;100.00;100850.41;4753438;30;20048;-52
2022/10/22 04:04:41;;;;;;;11.43;3.72;;;;;;;13.47;100.00;100855.56;4755008;30;20067;-50
2022/10/22 04:07:09;;;;;;;12.13;3.75;;;;;;;13.49;100.00;100853.38;4755106;30;20052;-52
2022/10/22 04:09:36;;;;;;;10.18;3.88;;;;;;;13.51;100.00;100849.22;4754610;30;20071;-52
2022/10/22 04:12:06;;;;;;;12.52;4.40;;;;;;;13.53;100.00;100851.69;4768212;30;20060;-54
2022/10/22 04:14:34;;;;;;;11.13;3.85;;;;;;;13.50;100.00;100850.34;4768610;30;20113;-54
2022/10/22 04:17:01;;;;;;;7.32;3.08;;;;;;;13.47;100.00;100850.09;4754600;30;20055;-50
2022/10/22 04:19:30;;;;;;;9.07;3.70;;;;;;;13.45;100.00;100850.41;4754839;30;20056;-52
2022/10/22 04:21:58;;;;;;;10.00;3.63;;;;;;;13.43;100.00;100855.34;4753309;30;20064;-51
2022/10/22 04:24:26;;;;;;;9.07;3.47;;;;;;;13.39;100.00;100849.59;4738855;30;20106;-56
2022/10/22 04:26:54;;;;;;;12.38;3.90;;;;;;;13.39;100.00;100851.53;4738732;30;20078;-52
2022/10/22 04:29:22;;;;;;;12.00;3.80;;;;;;;13.40;100.00;100855.91;4754585;30;20048;-51
2022/10/22 04:31:50;;;;;;;10.55;3.50;;;;;;;13.36;100.00;100854.84;4752703;30;20106;-52
2022/10/22 04:34:17;;;;;;;10.73;3.70;;;;;;;13.35;100.00;100853.22;4768040;30;20064;-56
2022/10/22 04:36:45;;;;;;;9.65;3.45;;;;;;;13.36;100.00;100855.66;4767063;30;20051;-54
2022/10/22 04:39:13;;;;;;;11.05;3.90;;;;;;;13.39;100.00;100859.75;4768210;30;20112;-57
2022/10/22 04:41:40;;;;;;;12.88;3.42;;;;;;;13.36;100.00;100855.66;4753135;30;20044;-53
2022/10/22 04:44:08;;;;;;;10.40;3.35;;;;;;;13.34;100.00;100846.09;4754250;30;20412;-53
2022/10/22 04:46:42;;;;;;;13.02;3.50;;;;;;;13.33;100.00;100855.41;4753497;30;20569;-53
2022/10/22 04:49:10;;;;;;;7.43;3.30;;;;;;;13.31;100.00;100847.50;4768020;30;20059;-50
2022/10/22 04:51:38;;;;;;;8.32;3.65;;;;;;;13.32;100.00;100851.84;4767986;30;20049;-52
2022/10/22 04:54:05;;;;;;;12.73;3.65;;;;;;;13.33;100.00;100850.75;4753645;30;20048;-53
2022/10/22 04:56:33;;;;;;;9.98;4.20;;;;;;;13.35;100.00;100864.16;4754148;30;20102;-51
2022/10/22 04:59:03;;;;;;;13.05;3.83;;;;;;;13.33;100.00;100860.91;4754408;30;20416;-52
2022/10/22 05:01:36;;;;;;;12.30;3.72;;;;;;;13.34;100.00;100857.03;4752894;30;20044;-62
2022/10/22 05:04:12;;;;;;;10.40;3.33;;;;;;;13.32;100.00;100865.53;4752789;30;20062;-60
2022/10/22 05:06:40;;;;;;;10.32;3.50;;;;;;;13.31;100.00;100869.38;4749996;30;20052;-52
2022/10/22 05:09:13;;;;;;;12.15;3.47;;;;;;;13.31;100.00;100869.38;4752623;30;20135;-53
2022/10/22 05:11:45;;;;;;;7.72;3.20;;;;;;;13.32;100.00;100871.00;4737887;30;20044;-50
2022/10/22 05:14:13;;;;;;;6.93;3.17;;;;;;;13.36;100.00;100876.75;4754240;30;20058;-58
2022/10/22 05:16:41;;;;;;;7.20;2.92;;;;;;;13.35;100.00;100866.91;4753762;30;20072;-58
2022/10/22 05:19:19;;;;;;;11.75;3.78;;;;;;;13.33;100.00;100869.91;4752456;30;20080;-58
2022/10/22 05:21:47;;;;;;;11.18;3.47;;;;;;;13.32;100.00;100875.66;4767475;30;20068;-56
2022/10/22 05:24:15;;;;;;;8.23;3.50;;;;;;;13.32;100.00;100870.19;4753879;30;20059;-57
2022/10/22 05:26:42;;;;;;;11.98;3.85;;;;;;;13.31;100.00;100872.13;4767340;30;20052;-55
2022/10/22 05:29:10;;;;;;;10.88;3.45;;;;;;;13.35;100.00;100869.66;4751458;30;20114;-56
2022/10/22 05:31:38;;;;;;;9.93;3.70;;;;;;;13.35;100.00;100869.66;4753475;30;20052;-57
2022/10/22 05:34:05;;;;;;;14.23;3.80;;;;;;;13.33;100.00;100872.66;4753712;30;20076;-59
2022/10/22 05:36:33;;;;;;;10.90;3.30;;;;;;;13.32;100.00;100876.47;4753394;30;20051;-58
2022/10/22 05:39:01;;;;;;;8.77;3.10;;;;;;;13.32;100.00;100873.75;4752030;30;20044;-57
2022/10/22 05:41:29;;;;;;;12.23;3.63;;;;;;;13.32;100.00;100875.66;4753516;30;20060;-57
2022/10/22 05:43:57;;;;;;;8.07;3.20;;;;;;;13.31;100.00;100879.50;4753414;30;20052;-54
2022/10/22 05:46:27;;;;;;;12.35;4.10;;;;;;;13.30;100.00;100883.34;4744822;30;20049;-57
2022/10/22 05:49:01;;;;;;;8.25;3.42;;;;;;;13.32;100.00;100883.88;4752175;30;20141;-59
2022/10/22 05:51:32;;;;;;;15.73;3.83;;;;;;;13.33;100.00;100891.00;4737702;30;20040;-58
2022/10/22 05:54:02;;;;;;;8.68;3.00;;;;;;;13.32;100.00;100892.91;4753741;30;20067;-55
2022/10/22 05:56:31;;;;;;;11.43;3.60;;;;;;;13.33;100.00;100893.72;4752010;30;20048;-57
2022/10/22 05:58:59;;;;;;;12.07;4.03;;;;;;;13.31;100.00;100898.66;4752217;30;20121;-60
2022/10/22 06:01:32;;;;;;;12.07;3.95;;;;;;;13.30;100.00;100905.22;4751878;30;20048;-60
2022/10/22 06:04:01;;;;;;;11.88;3.45;;;;;;;13.29;100.00;100912.63;4767152;30;20056;-59
2022/10/22 06:06:31;;;;;;;13.93;3.38;;;;;;;13.28;100.00;100907.47;4766016;30;20091;-56
2022/10/22 06:09:04;;;;;;;10.82;3.63;;;;;;;13.28;100.00;100911.00;4747183;30;20050;-58
2022/10/22 06:11:32;;;;;;;10.15;3.63;;;;;;;13.29;100.00;100911.81;4752815;30;20089;-61
2022/10/22 06:14:03;;;;;;;15.63;4.28;;;;;;;13.28;100.00;100915.66;4753229;30;20044;-55
2022/10/22 06:16:31;;;;;;;11.07;4.20;;;;;;;13.26;100.00;100923.31;4766697;30;20059;-55
2022/10/22 06:19:02;;;;;;;14.40;3.72;;;;;;;13.25;100.00;100918.91;4751124;30;20064;-58
2022/10/22 06:21:31;;;;;;;10.95;3.97;;;;;;;13.25;100.00;100924.38;4752825;30;20062;-55
2022/10/22 06:24:01;;;;;;;12.25;3.78;;;;;;;13.22;100.00;100934.78;4766734;30;20048;-59
2022/10/22 06:26:29;;;;;;;13.10;3.90;;;;;;;13.21;100.00;100935.09;4752765;30;20052;-60
2022/10/22 06:28:58;;;;;;;12.90;3.72;;;;;;;13.19;100.00;100932.63;4758642;30;20078;-58
2022/10/22 06:31:27;;;;;;;11.27;4.03;;;;;;;13.19;100.00;100942.75;4752549;30;20419;-56
2022/10/22 06:33:56;;;;;;;10.55;3.90;;;;;;;13.19;100.00;100951.78;4766176;30;20466;-60
2022/10/22 06:36:24;;;;;;;12.02;3.72;;;;;;;13.22;100.00;100948.47;4752731;30;20063;-58
2022/10/22 06:38:53;;;;;;;14.63;4.15;;;;;;;13.24;100.00;100956.41;4751187;30;20052;-56
2022/10/22 06:41:21;;;;;;;11.60;3.55;;;;;;;13.26;100.00;100962.44;4752283;30;20571;-58
2022/10/22 06:43:56;;;;;;;11.68;3.30;;;;;;;13.28;100.00;100973.13;4752748;30;20071;-58
2022/10/22 06:46:25;;;;;;;13.27;3.40;;;;;;;13.27;100.00;100968.72;4765825;30;20131;-55
2022/10/22 06:48:58;;;;;;;10.63;3.88;;;;;;;13.25;100.00;100968.16;4764236;30;20055;-58
2022/10/22 06:51:26;;;;;;;10.40;3.70;;;;;;;13.24;100.00;100972.03;4736626;30;20052;-58
2022/10/22 06:53:55;;;;;;;15.40;4.18;;;;;;;13.25;100.00;100977.19;4752501;30;20056;-55
2022/10/22 06:56:25;;;;;;;12.02;3.38;;;;;;;13.25;100.00;100979.13;4754503;30;20051;-55
2022/10/22 06:58:54;;;;;;;13.80;3.80;;;;;;;13.25;100.00;100990.06;4759477;30;20067;-55
2022/10/22 07:01:25;;;;;;;13.43;3.67;;;;;;;13.26;100.00;100988.97;4749382;30;20052;-59
2022/10/22 07:03:53;;;;;;;16.52;4.95;;;;;;;13.26;100.00;100992.53;4752683;30;20106;-57
2022/10/22 07:06:22;;;;;;;10.15;3.85;;;;;;;13.27;100.00;100999.66;4751767;30;20044;-59
2022/10/22 07:08:50;;;;;;;13.70;4.05;;;;;;;13.28;100.00;101003.22;4766037;30;20052;-59
2022/10/22 07:11:26;;;;;;;13.00;3.60;;;;;;;13.30;100.00;101009.22;4765820;30;20052;-56
2022/10/22 07:13:56;;;;;;;11.65;4.40;;;;;;;13.32;100.00;101007.84;4752357;30;20052;-59
2022/10/22 07:16:24;;;;;;;12.25;4.55;;;;;;;13.34;100.00;101018.50;4752009;30;20119;-56
2022/10/22 07:19:02;;;;;;;16.20;4.45;;;;;;;13.37;100.00;101020.66;4751862;30;20050;-59
2022/10/22 07:21:30;;;;;;;17.00;4.70;;;;;;;13.38;100.00;101022.31;4765960;30;20048;-56
2022/10/22 07:23:58;;;;;;;14.98;4.03;;;;;;;13.39;100.00;101021.22;4752621;30;20040;-59
2022/10/22 07:26:29;;;;;;;16.13;4.38;;;;;;;13.40;100.00;101017.41;4763011;30;20051;-56
2022/10/22 07:28:59;;;;;;;10.70;3.97;;;;;;;13.43;100.00;101025.84;4751107;30;20044;-60
2022/10/22 07:31:27;;;;;;;11.48;3.80;;;;;;;13.49;100.00;101034.03;4754394;30;20389;-55
2022/10/22 07:33:55;;;;;;;13.77;4.20;;;;;;;13.58;100.00;101032.34;4753487;30;20051;-52
2022/10/22 07:36:23;;;;;;;15.88;4.68;;;;;;;13.62;100.00;101028.75;4768616;30;20135;-55
2022/10/22 07:38:55;;;;;;;14.45;4.13;;;;;;;13.68;100.00;101036.94;4752789;30;20412;-54
2022/10/22 07:41:23;;;;;;;13.43;5.03;;;;;;;13.78;100.00;101031.38;4753845;30;20048;-56
2022/10/22 07:43:51;;;;;;;11.85;4.38;;;;;;;13.79;100.00;101035.78;4095465;30;10000697;-59
2022/10/22 07:46:19;;;;;;;17.33;4.30;;;;;;;13.79;100.00;101043.97;4748874;30;20060;-58
2022/10/22 07:48:47;;;;;;;14.95;4.38;;;;;;;13.75;100.00;101048.38;4748386;30;20040;-54
2022/10/22 07:51:15;;;;;;;14.65;4.50;;;;;;;13.81;100.00;101045.34;4747598;30;20053;-56
2022/10/22 07:53:43;;;;;;;13.90;4.25;;;;;;;13.86;100.00;101044.47;4752182;30;20060;-56
2022/10/22 07:56:10;;;;;;;13.00;4.03;;;;;;;13.82;100.00;101057.91;4751101;30;20056;-55
2022/10/22 07:58:38;;;;;;;12.43;4.57;;;;;;;13.88;100.00;101057.88;4742374;30;20060;-55
2022/10/22 08:01:06;;;;;;;15.15;4.63;;;;;;;14.02;100.00;101059.72;4750994;30;20054;-58
2022/10/22 08:03:34;;;;;;;12.90;4.50;;;;;;;14.09;100.00;101059.38;4765601;30;20052;-56
2022/10/22 08:06:02;;;;;;;14.77;4.40;;;;;;;14.28;100.00;101056.75;4752365;30;20056;-55
2022/10/22 08:08:30;;;;;;;16.02;4.55;;;;;;;14.23;100.00;101059.53;4764499;30;20063;-56
2022/10/22 08:10:59;;;;;;;14.70;4.47;;;;;;;14.18;100.00;101063.13;4751784;30;20183;-56
2022/10/22 08:13:29;;;;;;;12.82;4.28;;;;;;;14.23;100.00;101070.50;4750330;30;20064;-60
2022/10/22 08:16:00;;;;;;;14.23;3.50;;;;;;;14.27;100.00;101079.78;4767565;30;20072;-56
2022/10/22 08:18:28;;;;;;;14.75;3.90;;;;;;;14.37;100.00;101076.16;4764187;30;20067;-55
2022/10/22 08:20:56;;;;;;;15.02;4.30;;;;;;;14.49;100.00;101071.09;4765840;30;20048;-54
2022/10/22 08:23:24;;;;;;;13.40;5.05;;;;;;;14.55;100.00;101085.59;4756708;30;20052;-59
2022/10/22 08:25:56;;;;;;;15.43;4.45;;;;;;;14.59;100.00;101078.44;4751412;30;20046;-53
2022/10/22 08:28:24;;;;;;;9.23;3.10;;;;;;;14.58;100.00;101072.16;4772205;30;20082;-57
2022/10/22 08:30:51;;;;;;;12.75;4.05;;;;;;;14.61;100.00;101082.53;4763767;30;20048;-58
2022/10/22 08:33:19;;;;;;;13.80;4.15;;;;;;;14.58;100.00;101087.78;4758380;30;20054;-56
2022/10/22 08:35:50;;;;;;;13.82;5.03;;;;;;;14.67;100.00;101095.09;4752065;30;20048;-57
2022/10/22 08:38:18;;;;;;;18.67;7.78;;;;;;;14.66;100.00;101092.63;4751555;30;20071;-55
2022/10/22 08:40:53;;;;;;;10.90;3.90;;;;;;;14.70;100.00;101096.44;4750221;30;20409;-56
2022/10/22 08:43:24;;;;;;;13.48;4.03;;;;;;;14.67;100.00;101113.47;4750651;30;20090;-56
2022/10/22 08:46:12;;;;;;;9.55;3.55;;;;;;;14.59;100.00;101105.88;4751626;30;20133;-58
2022/10/22 08:48:50;;;;;;;17.73;3.88;;;;;;;14.59;100.00;101117.66;4751786;30;20056;-58
2022/10/22 08:51:20;;;;;;;13.38;3.90;;;;;;;14.64;100.00;101127.75;4765517;30;20052;-56
2022/10/22 08:54:17;;;;;;;11.20;3.90;;;;;;;14.71;100.00;101125.50;4750677;30;20488;-57
2022/10/22 08:56:48;;;;;;;17.55;3.92;;;;;;;14.67;100.00;101127.19;4738842;30;20573;-58
2022/10/22 08:59:41;;;;;;;11.70;4.00;;;;;;;14.75;100.00;101131.25;4765471;30;20048;-57
2022/10/22 09:02:27;;;;;;;14.32;3.92;;;;;;;14.82;100.00;101132.53;4751283;30;20060;-59
2022/10/22 09:05:05;;;;;;;13.02;3.67;;;;;;;14.84;100.00;101135.81;4751493;30;20048;-60
2022/10/22 09:07:41;;;;;;;12.07;3.40;;;;;;;14.90;100.00;101128.34;4764473;30;20052;-59
2022/10/22 09:10:11;;;;;;;11.45;3.22;;;;;;;14.88;100.00;101142.34;4763224;30;20048;-57
2022/10/22 09:12:39;;;;;;;11.20;3.78;;;;;;;14.93;100.00;101140.66;4750995;30;20068;-56
2022/10/22 09:15:15;;;;;;;10.15;3.13;;;;;;;14.86;100.00;101147.31;4764428;30;20056;-58
2022/10/22 09:18:01;;;;;;;12.27;3.63;;;;;;;14.86;100.00;101144.59;4747130;30;20665;-59
2022/10/22 09:20:55;;;;;;;11.80;3.40;;;;;;;14.94;100.00;101148.63;4741904;30;20072;-54
2022/10/22 09:23:40;;;;;;;11.52;3.28;;;;;;;14.84;100.00;101155.03;4749688;30;20421;-59
2022/10/22 09:26:14;;;;;;;14.05;4.00;;;;;;;14.89;100.00;101154.97;4749724;30;20564;-56
2022/10/22 09:28:43;;;;;;;13.90;4.65;;;;;;;14.98;100.00;101157.88;4747896;30;20055;-57
2022/10/22 09:31:12;;;;;;;15.52;4.28;;;;;;;14.94;100.00;101161.53;4750348;30;20084;-58
2022/10/22 09:33:42;;;;;;;14.98;4.38;;;;;;;14.86;100.00;101161.03;4750729;30;20059;-56
2022/10/22 09:36:17;;;;;;;14.23;4.47;;;;;;;14.83;100.00;101172.56;4751195;30;20500;-58
2022/10/22 09:38:50;;;;;;;14.75;4.47;;;;;;;14.76;100.00;101176.75;4748032;30;20118;-55
2022/10/22 09:41:19;;;;;;;20.75;5.45;;;;;;;14.80;100.00;101173.16;4744485;30;20056;-56
2022/10/22 09:43:48;;;;;;;16.05;5.00;;;;;;;14.82;100.00;101179.19;4746243;30;20052;-58
2022/10/22 09:46:21;;;;;;;18.73;5.90;;;;;;;14.85;100.00;101177.78;4746772;30;20048;-56
2022/10/22 09:48:59;;;;;;;16.08;4.93;;;;;;;14.83;100.00;101185.47;4747076;30;20048;-55
2022/10/22 09:51:50;;;;;;;19.25;5.38;;;;;;;14.85;100.00;101180.53;4753940;30;20044;-58
2022/10/22 09:54:32;;;;;;;24.75;6.22;;;;;;;15.01;100.00;101189.41;4754601;30;20048;-55
2022/10/22 09:57:15;;;;;;;39.78;8.68;;;;;;;15.05;100.00;101195.97;4754993;30;20048;-54
2022/10/22 09:59:46;;;;;;;16.98;4.18;;;;;;;15.15;100.00;101201.34;4753990;30;20044;-57
2022/10/22 10:02:20;;;;;;;23.40;6.35;;;;;;;15.13;100.00;101209.91;4752925;30;20562;-58
2022/10/22 10:05:05;;;;;;;15.88;4.72;;;;;;;15.05;100.00;101217.94;4764931;30;20416;-60
2022/10/22 10:07:34;;;;;;;18.92;4.57;;;;;;;15.01;100.00;101217.69;4753227;30;20044;-59
2022/10/22 10:10:05;;;;;;;21.00;7.13;;;;;;;15.03;100.00;101222.88;4750825;30;20466;-57
2022/10/22 10:13:17;;;;;;;22.88;6.07;;;;;;;15.03;100.00;101222.88;4766405;30;20508;-59
2022/10/22 10:15:55;;;;;;;18.48;5.10;;;;;;;15.19;100.00;101224.38;4684218;30;20168;-60
2022/10/22 10:18:42;;;;;;;17.95;4.55;;;;;;;15.12;100.00;101229.38;4746042;30;20810;-59
2022/10/22 10:21:31;;;;;;;25.77;6.90;;;;;;;15.21;100.00;101232.34;4751069;30;20052;-56
2022/10/22 10:24:10;;;;;;;14.90;4.38;;;;;;;15.10;100.00;101237.09;4753711;30;20040;-60
2022/10/22 10:26:48;;;;;;;13.43;4.43;;;;;;;15.05;100.00;101240.69;4752949;30;20052;-60
2022/10/22 10:29:18;;;;;;;21.83;5.53;;;;;;;15.18;100.00;101241.97;4752899;30;20059;-57
2022/10/22 10:32:05;;;;;;;13.23;3.75;;;;;;;15.17;100.00;101243.06;4752645;30;20051;-60
2022/10/22 10:35:21;;;;;;;15.60;4.45;;;;;;;15.12;100.00;101249.41;4765410;30;20051;-59
2022/10/22 10:38:05;;;;;;;16.05;4.60;;;;;;;15.26;100.00;101241.34;4749293;30;20060;-58
2022/10/22 10:40:43;;;;;;;13.07;4.28;;;;;;;15.34;100.00;101248.13;4752702;30;20499;-60
2022/10/22 10:43:40;;;;;;;16.77;4.43;;;;;;;15.45;100.00;101249.66;4752937;30;20040;-57
2022/10/22 10:46:23;;;;;;;18.58;4.50;;;;;;;15.64;100.00;101246.19;4740409;30;20513;-62
2022/10/22 10:49:00;;;;;;;18.58;4.57;;;;;;;15.66;100.00;101250.28;4748846;30;20110;-61
2022/10/22 10:51:44;;;;;;;16.02;4.38;;;;;;;15.59;100.00;101241.56;4752793;30;20044;-59
2022/10/22 10:54:26;;;;;;;15.80;3.38;;;;;;;15.55;100.00;101243.25;4766299;30;20075;-58
2022/10/22 10:57:06;;;;;;;12.10;3.45;;;;;;;15.53;100.00;101242.72;4752554;30;20083;-58
2022/10/22 11:00:05;;;;;;;17.30;4.63;;;;;;;15.53;100.00;101248.22;4750113;30;20060;-55
2022/10/22 11:02:46;;;;;;;11.55;4.70;;;;;;;15.57;100.00;101246.53;4765579;30;20052;-60
2022/10/22 11:05:35;;;;;;;14.65;3.53;;;;;;;15.57;100.00;101252.00;4754089;30;20075;-58
2022/10/22 11:08:23;;;;;;;13.05;4.57;;;;;;;15.70;100.00;101239.53;4754915;30;20573;-59
2022/10/22 11:11:05;;;;;;;19.45;4.80;;;;;;;15.80;100.00;101244.09;4755861;30;20060;-59
2022/10/22 11:13:42;;;;;;;17.35;4.47;;;;;;;15.81;100.00;101251.25;4740700;30;20071;-60
2022/10/22 11:16:16;;;;;;;26.88;4.90;;;;;;;15.95;100.00;101252.16;4755855;30;20048;-61
2022/10/22 11:18:52;;;;;;;24.35;5.07;;;;;;;15.94;100.00;101253.25;4756084;30;20408;-60
2022/10/22 11:21:40;;;;;;;25.40;5.10;;;;;;;16.03;100.00;101254.25;4756253;30;20436;-56
2022/10/22 11:24:18;;;;;;;15.18;4.35;;;;;;;15.96;100.00;101259.28;4740633;30;20040;-61
2022/10/22 11:27:21;;;;;;;14.73;3.90;;;;;;;15.84;100.00;101254.22;4753253;30;20064;-57
2022/10/22 11:29:53;;;;;;;18.70;5.20;;;;;;;15.91;100.00;101251.13;4740173;30;20060;-56
2022/10/22 11:32:22;;;;;;;13.80;3.55;;;;;;;15.83;100.00;101257.28;4740128;30;20064;-57
2022/10/22 11:34:55;;;;;;;14.65;4.25;;;;;;;15.84;100.00;101250.66;4755081;30;20052;-58
2022/10/22 11:37:26;;;;;;;13.07;4.40;;;;;;;15.89;100.00;101253.34;4755039;30;20052;-58